sensor_id;sensor_type;location;lat;lon;timestamp;P1;durP1;ratioP1;P2;durP2;ratioP2
59300;SDS011;45073;52.740;6.784;2023-07-13T00:00:20;5.00;;;2.00;;
59300;SDS011;45073;52.740;6.784;2023-07-13T00:02:47;12.95;;;2.90;;
59300;SDS011;45073;52.740;6.784;2023-07-13T00:05:12;11.57;;;3.00;;
59300;SDS011;45073;52.740;6.784;2023-07-13T00:07:38;8.75;;;2.15;;
59300;SDS011;45073;52.740;6.784;2023-07-13T00:10:04;10.95;;;2.42;;
59300;SDS011;45073;52.740;6.784;2023-07-13T00:12:32;10.60;;;2.63;;
59300;SDS011;45073;52.740;6.784;2023-07-13T00:14:59;10.90;;;3.50;;
59300;SDS011;45073;52.740;6.784;2023-07-13T00:17:26;10.68;;;2.00;;
59300;SDS011;45073;52.740;6.784;2023-07-13T00:19:53;12.98;;;3.15;;
59300;SDS011;45073;52.740;6.784;2023-07-13T00:22:20;11.57;;;3.35;;
59300;SDS011;45073;52.740;6.784;2023-07-13T00:24:47;11.80;;;3.20;;
59300;SDS011;45073;52.740;6.784;2023-07-13T00:27:13;10.30;;;1.85;;
59300;SDS011;45073;52.740;6.784;2023-07-13T00:29:39;11.00;;;3.05;;
59300;SDS011;45073;52.740;6.784;2023-07-13T00:32:05;9.55;;;1.92;;
59300;SDS011;45073;52.740;6.784;2023-07-13T00:34:32;10.93;;;3.05;;
59300;SDS011;45073;52.740;6.784;2023-07-13T00:36:58;6.43;;;1.73;;
59300;SDS011;45073;52.740;6.784;2023-07-13T00:39:23;11.00;;;2.70;;
59300;SDS011;45073;52.740;6.784;2023-07-13T00:41:49;11.35;;;2.15;;
59300;SDS011;45073;52.740;6.784;2023-07-13T00:44:16;8.55;;;2.03;;
59300;SDS011;45073;52.740;6.784;2023-07-13T00:46:42;12.10;;;3.60;;
59300;SDS011;45073;52.740;6.784;2023-07-13T00:49:09;7.20;;;1.88;;
59300;SDS011;45073;52.740;6.784;2023-07-13T00:51:44;10.15;;;2.90;;
59300;SDS011;45073;52.740;6.784;2023-07-13T00:54:13;6.43;;;2.03;;
59300;SDS011;45073;52.740;6.784;2023-07-13T00:56:43;11.25;;;3.03;;
59300;SDS011;45073;52.740;6.784;2023-07-13T00:59:10;11.95;;;3.28;;
59300;SDS011;45073;52.740;6.784;2023-07-13T01:01:38;14.18;;;3.25;;
59300;SDS011;45073;52.740;6.784;2023-07-13T01:04:04;12.38;;;3.60;;
59300;SDS011;45073;52.740;6.784;2023-07-13T01:06:33;11.10;;;3.42;;
59300;SDS011;45073;52.740;6.784;2023-07-13T01:09:03;12.77;;;3.42;;
59300;SDS011;45073;52.740;6.784;2023-07-13T01:11:29;7.90;;;1.90;;
59300;SDS011;45073;52.740;6.784;2023-07-13T01:13:55;10.30;;;3.40;;
59300;SDS011;45073;52.740;6.784;2023-07-13T01:16:25;10.38;;;2.83;;
59300;SDS011;45073;52.740;6.784;2023-07-13T01:18:52;14.90;;;3.72;;
59300;SDS011;45073;52.740;6.784;2023-07-13T01:21:18;11.52;;;2.38;;
59300;SDS011;45073;52.740;6.784;2023-07-13T01:23:44;10.30;;;2.38;;
59300;SDS011;45073;52.740;6.784;2023-07-13T01:26:09;16.45;;;3.80;;
59300;SDS011;45073;52.740;6.784;2023-07-13T01:28:36;13.82;;;4.00;;
59300;SDS011;45073;52.740;6.784;2023-07-13T01:31:03;16.60;;;4.13;;
59300;SDS011;45073;52.740;6.784;2023-07-13T01:33:29;12.60;;;3.50;;
59300;SDS011;45073;52.740;6.784;2023-07-13T01:35:55;11.80;;;3.30;;
59300;SDS011;45073;52.740;6.784;2023-07-13T01:38:23;9.00;;;2.22;;
59300;SDS011;45073;52.740;6.784;2023-07-13T01:40:50;8.52;;;1.95;;
59300;SDS011;45073;52.740;6.784;2023-07-13T01:43:17;10.90;;;2.90;;
59300;SDS011;45073;52.740;6.784;2023-07-13T01:45:43;13.48;;;3.80;;
59300;SDS011;45073;52.740;6.784;2023-07-13T01:48:09;11.85;;;3.30;;
59300;SDS011;45073;52.740;6.784;2023-07-13T01:50:36;11.10;;;3.00;;
59300;SDS011;45073;52.740;6.784;2023-07-13T01:53:02;13.75;;;4.00;;
59300;SDS011;45073;52.740;6.784;2023-07-13T01:55:28;11.38;;;2.20;;
59300;SDS011;45073;52.740;6.784;2023-07-13T01:57:54;9.52;;;2.63;;
59300;SDS011;45073;52.740;6.784;2023-07-13T02:00:20;11.45;;;2.42;;
59300;SDS011;45073;52.740;6.784;2023-07-13T02:02:46;11.95;;;3.65;;
59300;SDS011;45073;52.740;6.784;2023-07-13T02:05:13;12.05;;;3.40;;
59300;SDS011;45073;52.740;6.784;2023-07-13T02:07:39;11.45;;;3.30;;
59300;SDS011;45073;52.740;6.784;2023-07-13T02:10:05;12.77;;;3.78;;
59300;SDS011;45073;52.740;6.784;2023-07-13T02:12:32;13.60;;;3.83;;
59300;SDS011;45073;52.740;6.784;2023-07-13T02:14:58;10.43;;;3.00;;
59300;SDS011;45073;52.740;6.784;2023-07-13T02:17:24;13.60;;;3.33;;
59300;SDS011;45073;52.740;6.784;2023-07-13T02:19:50;13.10;;;3.92;;
59300;SDS011;45073;52.740;6.784;2023-07-13T02:22:16;9.63;;;2.45;;
59300;SDS011;45073;52.740;6.784;2023-07-13T02:24:42;13.65;;;3.40;;
59300;SDS011;45073;52.740;6.784;2023-07-13T02:27:07;14.55;;;3.42;;
59300;SDS011;45073;52.740;6.784;2023-07-13T02:29:33;13.77;;;2.75;;
59300;SDS011;45073;52.740;6.784;2023-07-13T02:31:58;15.93;;;4.07;;
59300;SDS011;45073;52.740;6.784;2023-07-13T02:34:24;13.35;;;3.60;;
59300;SDS011;45073;52.740;6.784;2023-07-13T02:36:50;14.50;;;3.92;;
59300;SDS011;45073;52.740;6.784;2023-07-13T02:39:16;12.77;;;4.03;;
59300;SDS011;45073;52.740;6.784;2023-07-13T02:41:41;13.73;;;3.35;;
59300;SDS011;45073;52.740;6.784;2023-07-13T02:44:07;14.02;;;3.85;;
59300;SDS011;45073;52.740;6.784;2023-07-13T02:46:34;12.88;;;4.07;;
59300;SDS011;45073;52.740;6.784;2023-07-13T02:49:01;14.70;;;4.05;;
59300;SDS011;45073;52.740;6.784;2023-07-13T02:51:29;15.07;;;4.47;;
59300;SDS011;45073;52.740;6.784;2023-07-13T02:53:55;9.90;;;2.72;;
59300;SDS011;45073;52.740;6.784;2023-07-13T02:56:26;15.68;;;4.50;;
59300;SDS011;45073;52.740;6.784;2023-07-13T02:58:53;13.63;;;3.45;;
59300;SDS011;45073;52.740;6.784;2023-07-13T03:01:19;9.00;;;2.80;;
59300;SDS011;45073;52.740;6.784;2023-07-13T03:03:46;14.55;;;4.28;;
59300;SDS011;45073;52.740;6.784;2023-07-13T03:06:13;8.77;;;2.65;;
59300;SDS011;45073;52.740;6.784;2023-07-13T03:08:39;14.15;;;4.15;;
59300;SDS011;45073;52.740;6.784;2023-07-13T03:11:16;15.10;;;4.30;;
59300;SDS011;45073;52.740;6.784;2023-07-13T03:13:43;10.77;;;2.58;;
59300;SDS011;45073;52.740;6.784;2023-07-13T03:16:09;13.98;;;4.18;;
59300;SDS011;45073;52.740;6.784;2023-07-13T03:18:36;14.60;;;3.75;;
59300;SDS011;45073;52.740;6.784;2023-07-13T03:21:02;8.30;;;2.20;;
59300;SDS011;45073;52.740;6.784;2023-07-13T03:23:29;13.48;;;4.45;;
59300;SDS011;45073;52.740;6.784;2023-07-13T03:26:05;14.70;;;4.28;;
59300;SDS011;45073;52.740;6.784;2023-07-13T03:28:33;10.88;;;2.70;;
59300;SDS011;45073;52.740;6.784;2023-07-13T03:31:01;12.85;;;3.90;;
59300;SDS011;45073;52.740;6.784;2023-07-13T03:33:36;16.10;;;4.18;;
59300;SDS011;45073;52.740;6.784;2023-07-13T03:36:02;10.07;;;2.67;;
59300;SDS011;45073;52.740;6.784;2023-07-13T03:38:30;10.15;;;2.75;;
59300;SDS011;45073;52.740;6.784;2023-07-13T03:40:56;14.63;;;4.18;;
59300;SDS011;45073;52.740;6.784;2023-07-13T03:43:21;11.75;;;4.43;;
59300;SDS011;45073;52.740;6.784;2023-07-13T03:45:47;15.75;;;4.60;;
59300;SDS011;45073;52.740;6.784;2023-07-13T03:48:13;8.18;;;2.95;;
59300;SDS011;45073;52.740;6.784;2023-07-13T03:50:39;13.05;;;4.35;;
59300;SDS011;45073;52.740;6.784;2023-07-13T03:53:05;14.00;;;4.53;;
59300;SDS011;45073;52.740;6.784;2023-07-13T03:55:30;11.88;;;4.22;;
59300;SDS011;45073;52.740;6.784;2023-07-13T03:58:01;10.57;;;2.50;;
59300;SDS011;45073;52.740;6.784;2023-07-13T04:00:50;13.48;;;4.13;;
59300;SDS011;45073;52.740;6.784;2023-07-13T04:03:15;13.27;;;4.55;;
59300;SDS011;45073;52.740;6.784;2023-07-13T04:05:41;14.25;;;4.32;;
59300;SDS011;45073;52.740;6.784;2023-07-13T04:08:07;13.38;;;3.88;;
59300;SDS011;45073;52.740;6.784;2023-07-13T04:10:32;10.93;;;2.83;;
59300;SDS011;45073;52.740;6.784;2023-07-13T04:12:58;13.52;;;4.35;;
59300;SDS011;45073;52.740;6.784;2023-07-13T04:15:23;13.23;;;4.22;;
59300;SDS011;45073;52.740;6.784;2023-07-13T04:17:49;14.88;;;3.35;;
59300;SDS011;45073;52.740;6.784;2023-07-13T04:20:15;15.57;;;4.43;;
59300;SDS011;45073;52.740;6.784;2023-07-13T04:22:40;12.43;;;4.20;;
59300;SDS011;45073;52.740;6.784;2023-07-13T04:25:06;14.07;;;4.43;;
59300;SDS011;45073;52.740;6.784;2023-07-13T04:27:32;11.45;;;2.53;;
59300;SDS011;45073;52.740;6.784;2023-07-13T04:29:57;13.00;;;2.75;;
59300;SDS011;45073;52.740;6.784;2023-07-13T04:32:23;14.38;;;4.18;;
59300;SDS011;45073;52.740;6.784;2023-07-13T04:34:49;14.55;;;4.07;;
59300;SDS011;45073;52.740;6.784;2023-07-13T04:37:20;8.68;;;2.65;;
59300;SDS011;45073;52.740;6.784;2023-07-13T04:39:45;13.43;;;4.10;;
59300;SDS011;45073;52.740;6.784;2023-07-13T04:42:11;13.52;;;4.35;;
59300;SDS011;45073;52.740;6.784;2023-07-13T04:44:37;9.60;;;3.03;;
59300;SDS011;45073;52.740;6.784;2023-07-13T04:47:03;11.25;;;4.10;;
59300;SDS011;45073;52.740;6.784;2023-07-13T04:49:28;11.93;;;2.90;;
59300;SDS011;45073;52.740;6.784;2023-07-13T04:51:55;10.63;;;3.58;;
59300;SDS011;45073;52.740;6.784;2023-07-13T04:54:21;14.98;;;4.28;;
59300;SDS011;45073;52.740;6.784;2023-07-13T04:56:47;12.35;;;4.53;;
59300;SDS011;45073;52.740;6.784;2023-07-13T04:59:13;10.70;;;3.38;;
59300;SDS011;45073;52.740;6.784;2023-07-13T05:01:38;13.45;;;4.70;;
59300;SDS011;45073;52.740;6.784;2023-07-13T05:04:06;11.13;;;4.40;;
59300;SDS011;45073;52.740;6.784;2023-07-13T05:06:31;15.23;;;4.57;;
59300;SDS011;45073;52.740;6.784;2023-07-13T05:08:57;12.60;;;4.97;;
59300;SDS011;45073;52.740;6.784;2023-07-13T05:11:23;14.13;;;5.50;;
59300;SDS011;45073;52.740;6.784;2023-07-13T05:13:48;10.50;;;3.25;;
59300;SDS011;45073;52.740;6.784;2023-07-13T05:16:14;14.10;;;2.83;;
59300;SDS011;45073;52.740;6.784;2023-07-13T05:18:40;10.88;;;3.60;;
59300;SDS011;45073;52.740;6.784;2023-07-13T05:21:06;9.52;;;3.20;;
59300;SDS011;45073;52.740;6.784;2023-07-13T05:23:34;15.38;;;5.20;;
59300;SDS011;45073;52.740;6.784;2023-07-13T05:26:01;15.95;;;5.25;;
59300;SDS011;45073;52.740;6.784;2023-07-13T05:28:27;13.38;;;4.95;;
59300;SDS011;45073;52.740;6.784;2023-07-13T05:30:55;14.77;;;5.18;;
59300;SDS011;45073;52.740;6.784;2023-07-13T05:33:21;13.18;;;4.97;;
59300;SDS011;45073;52.740;6.784;2023-07-13T05:35:47;15.02;;;5.50;;
59300;SDS011;45073;52.740;6.784;2023-07-13T05:38:12;11.13;;;2.97;;
59300;SDS011;45073;52.740;6.784;2023-07-13T05:40:38;13.55;;;3.30;;
59300;SDS011;45073;52.740;6.784;2023-07-13T05:43:03;11.75;;;3.80;;
59300;SDS011;45073;52.740;6.784;2023-07-13T05:45:29;16.25;;;5.38;;
59300;SDS011;45073;52.740;6.784;2023-07-13T05:47:55;14.75;;;5.30;;
59300;SDS011;45073;52.740;6.784;2023-07-13T05:50:20;14.82;;;5.60;;
59300;SDS011;45073;52.740;6.784;2023-07-13T05:52:46;14.90;;;5.47;;
59300;SDS011;45073;52.740;6.784;2023-07-13T05:55:12;13.90;;;3.25;;
59300;SDS011;45073;52.740;6.784;2023-07-13T05:57:38;12.80;;;4.07;;
59300;SDS011;45073;52.740;6.784;2023-07-13T06:00:04;17.42;;;5.72;;
59300;SDS011;45073;52.740;6.784;2023-07-13T06:02:30;16.95;;;5.43;;
59300;SDS011;45073;52.740;6.784;2023-07-13T06:04:55;11.40;;;3.33;;
59300;SDS011;45073;52.740;6.784;2023-07-13T06:07:21;15.00;;;5.00;;
59300;SDS011;45073;52.740;6.784;2023-07-13T06:09:47;15.48;;;4.80;;
59300;SDS011;45073;52.740;6.784;2023-07-13T06:12:12;14.35;;;5.07;;
59300;SDS011;45073;52.740;6.784;2023-07-13T06:14:38;12.30;;;5.15;;
59300;SDS011;45073;52.740;6.784;2023-07-13T06:17:03;10.05;;;3.55;;
59300;SDS011;45073;52.740;6.784;2023-07-13T06:19:29;13.05;;;5.05;;
59300;SDS011;45073;52.740;6.784;2023-07-13T06:21:55;11.40;;;2.95;;
59300;SDS011;45073;52.740;6.784;2023-07-13T06:24:21;11.80;;;3.72;;
59300;SDS011;45073;52.740;6.784;2023-07-13T06:26:47;13.85;;;5.00;;
59300;SDS011;45073;52.740;6.784;2023-07-13T06:29:12;13.23;;;4.90;;
59300;SDS011;45073;52.740;6.784;2023-07-13T06:31:38;13.15;;;3.92;;
59300;SDS011;45073;52.740;6.784;2023-07-13T06:34:03;11.98;;;4.50;;
59300;SDS011;45073;52.740;6.784;2023-07-13T06:36:29;13.77;;;4.85;;
59300;SDS011;45073;52.740;6.784;2023-07-13T06:38:55;13.52;;;5.10;;
59300;SDS011;45073;52.740;6.784;2023-07-13T06:41:20;13.65;;;4.50;;
59300;SDS011;45073;52.740;6.784;2023-07-13T06:43:47;14.20;;;5.03;;
59300;SDS011;45073;52.740;6.784;2023-07-13T06:46:12;13.25;;;4.82;;
59300;SDS011;45073;52.740;6.784;2023-07-13T06:48:38;15.73;;;5.57;;
59300;SDS011;45073;52.740;6.784;2023-07-13T06:51:03;18.48;;;5.43;;
59300;SDS011;45073;52.740;6.784;2023-07-13T06:53:29;13.32;;;4.85;;
59300;SDS011;45073;52.740;6.784;2023-07-13T06:55:55;16.30;;;4.88;;
59300;SDS011;45073;52.740;6.784;2023-07-13T06:58:21;12.95;;;3.95;;
59300;SDS011;45073;52.740;6.784;2023-07-13T07:00:46;14.77;;;5.57;;
59300;SDS011;45073;52.740;6.784;2023-07-13T07:03:16;14.65;;;5.18;;
59300;SDS011;45073;52.740;6.784;2023-07-13T07:05:42;14.73;;;5.53;;
59300;SDS011;45073;52.740;6.784;2023-07-13T07:08:07;17.25;;;6.95;;
59300;SDS011;45073;52.740;6.784;2023-07-13T07:10:33;14.52;;;5.47;;
59300;SDS011;45073;52.740;6.784;2023-07-13T07:12:59;13.00;;;4.90;;
59300;SDS011;45073;52.740;6.784;2023-07-13T07:15:25;13.90;;;4.63;;
59300;SDS011;45073;52.740;6.784;2023-07-13T07:17:51;12.15;;;5.03;;
59300;SDS011;45073;52.740;6.784;2023-07-13T07:20:16;11.82;;;5.00;;
59300;SDS011;45073;52.740;6.784;2023-07-13T07:22:42;12.88;;;5.28;;
59300;SDS011;45073;52.740;6.784;2023-07-13T07:25:08;13.30;;;5.45;;
59300;SDS011;45073;52.740;6.784;2023-07-13T07:27:33;15.65;;;5.43;;
59300;SDS011;45073;52.740;6.784;2023-07-13T07:29:59;13.63;;;5.35;;
59300;SDS011;45073;52.740;6.784;2023-07-13T07:32:25;12.57;;;4.90;;
59300;SDS011;45073;52.740;6.784;2023-07-13T07:34:50;13.57;;;5.30;;
59300;SDS011;45073;52.740;6.784;2023-07-13T07:37:16;14.23;;;5.32;;
59300;SDS011;45073;52.740;6.784;2023-07-13T07:39:45;16.85;;;5.25;;
59300;SDS011;45073;52.740;6.784;2023-07-13T07:42:10;12.45;;;3.80;;
59300;SDS011;45073;52.740;6.784;2023-07-13T07:44:37;10.88;;;3.67;;
59300;SDS011;45073;52.740;6.784;2023-07-13T07:47:05;16.80;;;5.80;;
59300;SDS011;45073;52.740;6.784;2023-07-13T07:49:31;16.65;;;5.55;;
59300;SDS011;45073;52.740;6.784;2023-07-13T07:51:57;12.60;;;5.10;;
59300;SDS011;45073;52.740;6.784;2023-07-13T07:54:22;16.65;;;6.10;;
59300;SDS011;45073;52.740;6.784;2023-07-13T07:56:48;15.68;;;5.22;;
59300;SDS011;45073;52.740;6.784;2023-07-13T07:59:14;14.35;;;5.13;;
59300;SDS011;45073;52.740;6.784;2023-07-13T08:01:39;16.00;;;5.22;;
59300;SDS011;45073;52.740;6.784;2023-07-13T08:04:05;15.02;;;5.68;;
59300;SDS011;45073;52.740;6.784;2023-07-13T08:06:31;15.75;;;5.32;;
59300;SDS011;45073;52.740;6.784;2023-07-13T08:08:58;19.17;;;5.97;;
59300;SDS011;45073;52.740;6.784;2023-07-13T08:11:24;11.75;;;5.30;;
59300;SDS011;45073;52.740;6.784;2023-07-13T08:13:50;16.73;;;5.68;;
59300;SDS011;45073;52.740;6.784;2023-07-13T08:16:16;12.75;;;5.90;;
59300;SDS011;45073;52.740;6.784;2023-07-13T08:18:41;12.57;;;5.68;;
59300;SDS011;45073;52.740;6.784;2023-07-13T08:21:07;12.27;;;5.47;;
59300;SDS011;45073;52.740;6.784;2023-07-13T08:23:34;13.70;;;5.63;;
59300;SDS011;45073;52.740;6.784;2023-07-13T08:26:00;15.18;;;6.07;;
59300;SDS011;45073;52.740;6.784;2023-07-13T08:28:26;12.85;;;6.00;;
59300;SDS011;45073;52.740;6.784;2023-07-13T08:30:53;16.33;;;6.20;;
59300;SDS011;45073;52.740;6.784;2023-07-13T08:33:19;14.07;;;5.82;;
59300;SDS011;45073;52.740;6.784;2023-07-13T08:35:46;16.15;;;6.53;;
59300;SDS011;45073;52.740;6.784;2023-07-13T08:38:13;13.85;;;5.90;;
59300;SDS011;45073;52.740;6.784;2023-07-13T08:40:39;15.90;;;6.20;;
59300;SDS011;45073;52.740;6.784;2023-07-13T08:43:07;14.52;;;6.22;;
59300;SDS011;45073;52.740;6.784;2023-07-13T08:51:16;17.75;;;7.65;;
59300;SDS011;45073;52.740;6.784;2023-07-13T08:53:51;15.55;;;7.15;;
59300;SDS011;45073;52.740;6.784;2023-07-13T08:56:21;17.13;;;7.72;;
59300;SDS011;45073;52.740;6.784;2023-07-13T08:58:51;12.43;;;6.32;;
59300;SDS011;45073;52.740;6.784;2023-07-13T09:01:42;16.23;;;6.88;;
59300;SDS011;45073;52.740;6.784;2023-07-13T09:04:34;14.93;;;6.63;;
59300;SDS011;45073;52.740;6.784;2023-07-13T09:16:06;18.58;;;9.65;;
59300;SDS011;45073;52.740;6.784;2023-07-13T09:18:35;17.52;;;10.00;;
59300;SDS011;45073;52.740;6.784;2023-07-13T09:21:05;17.77;;;10.68;;
59300;SDS011;45073;52.740;6.784;2023-07-13T09:23:39;15.07;;;9.52;;
59300;SDS011;45073;52.740;6.784;2023-07-13T09:26:16;18.77;;;10.35;;
59300;SDS011;45073;52.740;6.784;2023-07-13T09:28:45;17.38;;;9.35;;
59300;SDS011;45073;52.740;6.784;2023-07-13T09:53:23;3.95;;;1.30;;
59300;SDS011;45073;52.740;6.784;2023-07-13T09:55:55;2.72;;;0.95;;
59300;SDS011;45073;52.740;6.784;2023-07-13T09:58:22;4.47;;;1.33;;
59300;SDS011;45073;52.740;6.784;2023-07-13T10:05:54;4.05;;;1.20;;
59300;SDS011;45073;52.740;6.784;2023-07-13T10:08:35;3.83;;;1.15;;
59300;SDS011;45073;52.740;6.784;2023-07-13T10:11:12;3.83;;;1.25;;
59300;SDS011;45073;52.740;6.784;2023-07-13T10:13:48;3.72;;;1.25;;
59300;SDS011;45073;52.740;6.784;2023-07-13T10:16:24;4.75;;;1.70;;
59300;SDS011;45073;52.740;6.784;2023-07-13T10:18:58;4.25;;;1.63;;
59300;SDS011;45073;52.740;6.784;2023-07-13T10:21:37;4.50;;;1.65;;
59300;SDS011;45073;52.740;6.784;2023-07-13T10:24:50;4.78;;;1.65;;
59300;SDS011;45073;52.740;6.784;2023-07-13T10:29:29;7.25;;;2.83;;
59300;SDS011;45073;52.740;6.784;2023-07-13T10:32:00;7.53;;;3.08;;
59300;SDS011;45073;52.740;6.784;2023-07-13T10:34:26;8.43;;;3.60;;
59300;SDS011;45073;52.740;6.784;2023-07-13T10:36:53;9.80;;;4.47;;
59300;SDS011;45073;52.740;6.784;2023-07-13T10:39:20;8.75;;;4.65;;
59300;SDS011;45073;52.740;6.784;2023-07-13T10:41:53;9.15;;;4.22;;
59300;SDS011;45073;52.740;6.784;2023-07-13T10:44:24;10.60;;;5.20;;
59300;SDS011;45073;52.740;6.784;2023-07-13T10:47:08;11.80;;;5.25;;
59300;SDS011;45073;52.740;6.784;2023-07-13T10:49:39;11.65;;;6.10;;
59300;SDS011;45073;52.740;6.784;2023-07-13T10:52:20;14.18;;;5.65;;
59300;SDS011;45073;52.740;6.784;2023-07-13T10:58:01;10.93;;;6.45;;
59300;SDS011;45073;52.740;6.784;2023-07-13T11:00:36;11.02;;;6.05;;
59300;SDS011;45073;52.740;6.784;2023-07-13T11:03:12;11.60;;;6.20;;
59300;SDS011;45073;52.740;6.784;2023-07-13T11:05:40;10.45;;;6.13;;
59300;SDS011;45073;52.740;6.784;2023-07-13T11:10:51;10.73;;;6.15;;
59300;SDS011;45073;52.740;6.784;2023-07-13T11:16:35;10.73;;;6.70;;
59300;SDS011;45073;52.740;6.784;2023-07-13T11:21:27;11.18;;;6.35;;
59300;SDS011;45073;52.740;6.784;2023-07-13T11:24:14;7.63;;;2.80;;
59300;SDS011;45073;52.740;6.784;2023-07-13T11:26:42;5.32;;;2.22;;
59300;SDS011;45073;52.740;6.784;2023-07-13T11:31:54;7.93;;;2.20;;
59300;SDS011;45073;52.740;6.784;2023-07-13T11:34:40;6.70;;;3.00;;
59300;SDS011;45073;52.740;6.784;2023-07-13T11:37:13;7.55;;;3.40;;
59300;SDS011;45073;52.740;6.784;2023-07-13T11:39:42;5.20;;;2.30;;
59300;SDS011;45073;52.740;6.784;2023-07-13T11:42:15;7.60;;;3.40;;
59300;SDS011;45073;52.740;6.784;2023-07-13T11:44:45;8.57;;;3.17;;
59300;SDS011;45073;52.740;6.784;2023-07-13T11:47:18;7.78;;;3.65;;
59300;SDS011;45073;52.740;6.784;2023-07-13T11:49:51;13.13;;;3.33;;
59300;SDS011;45073;52.740;6.784;2023-07-13T11:52:22;6.85;;;2.92;;
59300;SDS011;45073;52.740;6.784;2023-07-13T11:54:53;6.00;;;2.22;;
59300;SDS011;45073;52.740;6.784;2023-07-13T11:57:25;8.60;;;3.83;;
59300;SDS011;45073;52.740;6.784;2023-07-13T11:59:54;8.10;;;3.35;;
59300;SDS011;45073;52.740;6.784;2023-07-13T12:02:31;7.82;;;3.80;;
59300;SDS011;45073;52.740;6.784;2023-07-13T12:04:59;9.85;;;4.18;;
59300;SDS011;45073;52.740;6.784;2023-07-13T12:07:27;8.57;;;3.83;;
59300;SDS011;45073;52.740;6.784;2023-07-13T12:10:00;9.70;;;4.45;;
59300;SDS011;45073;52.740;6.784;2023-07-13T12:12:47;10.18;;;4.32;;
59300;SDS011;45073;52.740;6.784;2023-07-13T12:15:19;10.60;;;5.28;;
59300;SDS011;45073;52.740;6.784;2023-07-13T12:17:47;10.75;;;5.38;;
59300;SDS011;45073;52.740;6.784;2023-07-13T12:20:47;10.27;;;5.05;;
59300;SDS011;45073;52.740;6.784;2023-07-13T12:23:10;10.63;;;6.03;;
59300;SDS011;45073;52.740;6.784;2023-07-13T12:26:01;10.70;;;5.97;;
59300;SDS011;45073;52.740;6.784;2023-07-13T12:31:03;10.93;;;5.13;;
59300;SDS011;45073;52.740;6.784;2023-07-13T12:33:32;9.07;;;4.65;;
59300;SDS011;45073;52.740;6.784;2023-07-13T12:36:02;10.77;;;5.05;;
59300;SDS011;45073;52.740;6.784;2023-07-13T12:38:31;10.48;;;4.10;;
59300;SDS011;45073;52.740;6.784;2023-07-13T12:41:00;10.50;;;4.47;;
59300;SDS011;45073;52.740;6.784;2023-07-13T12:43:28;8.85;;;4.65;;
59300;SDS011;45073;52.740;6.784;2023-07-13T12:46:03;11.13;;;5.00;;
59300;SDS011;45073;52.740;6.784;2023-07-13T12:48:37;11.43;;;4.38;;
59300;SDS011;45073;52.740;6.784;2023-07-13T12:51:03;11.15;;;3.58;;
59300;SDS011;45073;52.740;6.784;2023-07-13T12:53:34;9.25;;;3.13;;
59300;SDS011;45073;52.740;6.784;2023-07-13T12:56:05;9.52;;;3.28;;
59300;SDS011;45073;52.740;6.784;2023-07-13T12:58:40;8.52;;;3.42;;
59300;SDS011;45073;52.740;6.784;2023-07-13T13:01:09;8.27;;;2.75;;
59300;SDS011;45073;52.740;6.784;2023-07-13T13:03:38;8.52;;;3.10;;
59300;SDS011;45073;52.740;6.784;2023-07-13T13:06:17;8.65;;;2.63;;
59300;SDS011;45073;52.740;6.784;2023-07-13T13:08:45;8.30;;;2.58;;
59300;SDS011;45073;52.740;6.784;2023-07-13T13:11:13;7.63;;;2.70;;
59300;SDS011;45073;52.740;6.784;2023-07-13T13:13:41;6.90;;;2.40;;
59300;SDS011;45073;52.740;6.784;2023-07-13T13:16:23;7.25;;;1.92;;
59300;SDS011;45073;52.740;6.784;2023-07-13T13:18:57;8.75;;;2.22;;
59300;SDS011;45073;52.740;6.784;2023-07-13T13:21:28;7.43;;;2.22;;
59300;SDS011;45073;52.740;6.784;2023-07-13T13:23:54;7.88;;;2.35;;
59300;SDS011;45073;52.740;6.784;2023-07-13T13:26:21;8.10;;;2.35;;
59300;SDS011;45073;52.740;6.784;2023-07-13T13:28:47;9.70;;;2.47;;
59300;SDS011;45073;52.740;6.784;2023-07-13T13:31:14;8.25;;;2.30;;
59300;SDS011;45073;52.740;6.784;2023-07-13T13:33:44;8.68;;;2.20;;
59300;SDS011;45073;52.740;6.784;2023-07-13T13:36:20;6.85;;;2.00;;
59300;SDS011;45073;52.740;6.784;2023-07-13T13:38:48;6.40;;;1.75;;
59300;SDS011;45073;52.740;6.784;2023-07-13T13:41:15;6.75;;;2.05;;
59300;SDS011;45073;52.740;6.784;2023-07-13T13:43:42;9.57;;;1.92;;
59300;SDS011;45073;52.740;6.784;2023-07-13T13:46:12;8.68;;;2.10;;
59300;SDS011;45073;52.740;6.784;2023-07-13T13:48:43;7.03;;;2.05;;
59300;SDS011;45073;52.740;6.784;2023-07-13T13:51:17;7.18;;;2.28;;
59300;SDS011;45073;52.740;6.784;2023-07-13T13:53:46;7.65;;;2.00;;
59300;SDS011;45073;52.740;6.784;2023-07-13T13:56:13;7.70;;;2.10;;
59300;SDS011;45073;52.740;6.784;2023-07-13T13:58:39;7.78;;;2.15;;
59300;SDS011;45073;52.740;6.784;2023-07-13T14:01:09;8.27;;;2.10;;
59300;SDS011;45073;52.740;6.784;2023-07-13T14:03:39;9.50;;;1.90;;
59300;SDS011;45073;52.740;6.784;2023-07-13T14:06:05;6.88;;;1.90;;
59300;SDS011;45073;52.740;6.784;2023-07-13T14:08:30;7.97;;;1.83;;
59300;SDS011;45073;52.740;6.784;2023-07-13T14:10:57;6.00;;;1.75;;
59300;SDS011;45073;52.740;6.784;2023-07-13T14:14:05;6.68;;;1.63;;
59300;SDS011;45073;52.740;6.784;2023-07-13T14:18:46;6.15;;;1.50;;
59300;SDS011;45073;52.740;6.784;2023-07-13T14:21:16;3.10;;;1.30;;
59300;SDS011;45073;52.740;6.784;2023-07-13T14:23:45;5.37;;;1.50;;
59300;SDS011;45073;52.740;6.784;2023-07-13T14:26:12;5.70;;;1.58;;
59300;SDS011;45073;52.740;6.784;2023-07-13T14:28:42;6.32;;;1.70;;
59300;SDS011;45073;52.740;6.784;2023-07-13T14:31:11;5.90;;;1.42;;
59300;SDS011;45073;52.740;6.784;2023-07-13T14:33:37;7.28;;;1.63;;
59300;SDS011;45073;52.740;6.784;2023-07-13T14:36:05;5.85;;;1.60;;
59300;SDS011;45073;52.740;6.784;2023-07-13T14:38:46;6.88;;;1.55;;
59300;SDS011;45073;52.740;6.784;2023-07-13T14:41:12;7.95;;;1.60;;
59300;SDS011;45073;52.740;6.784;2023-07-13T14:43:37;5.82;;;1.77;;
59300;SDS011;45073;52.740;6.784;2023-07-13T14:46:03;4.88;;;1.40;;
59300;SDS011;45073;52.740;6.784;2023-07-13T14:48:29;4.60;;;1.55;;
59300;SDS011;45073;52.740;6.784;2023-07-13T14:50:57;7.95;;;1.65;;
59300;SDS011;45073;52.740;6.784;2023-07-13T14:53:24;5.18;;;1.50;;
59300;SDS011;45073;52.740;6.784;2023-07-13T14:55:52;6.07;;;1.50;;
59300;SDS011;45073;52.740;6.784;2023-07-13T14:58:18;6.65;;;1.70;;
59300;SDS011;45073;52.740;6.784;2023-07-13T15:00:43;7.85;;;1.80;;
59300;SDS011;45073;52.740;6.784;2023-07-13T15:03:20;8.13;;;2.10;;
59300;SDS011;45073;52.740;6.784;2023-07-13T15:05:49;7.60;;;1.70;;
59300;SDS011;45073;52.740;6.784;2023-07-13T15:08:15;4.97;;;1.50;;
59300;SDS011;45073;52.740;6.784;2023-07-13T15:10:41;5.32;;;1.52;;
59300;SDS011;45073;52.740;6.784;2023-07-13T15:13:14;5.68;;;1.98;;
59300;SDS011;45073;52.740;6.784;2023-07-13T15:15:48;4.63;;;1.45;;
59300;SDS011;45073;52.740;6.784;2023-07-13T15:18:16;5.22;;;1.45;;
59300;SDS011;45073;52.740;6.784;2023-07-13T15:20:44;7.00;;;1.70;;
59300;SDS011;45073;52.740;6.784;2023-07-13T15:23:12;6.28;;;1.45;;
59300;SDS011;45073;52.740;6.784;2023-07-13T15:25:39;6.65;;;1.75;;
59300;SDS011;45073;52.740;6.784;2023-07-13T15:28:05;7.30;;;1.80;;
59300;SDS011;45073;52.740;6.784;2023-07-13T15:30:33;6.35;;;1.70;;
59300;SDS011;45073;52.740;6.784;2023-07-13T15:33:11;5.93;;;1.50;;
59300;SDS011;45073;52.740;6.784;2023-07-13T15:35:44;5.70;;;1.70;;
59300;SDS011;45073;52.740;6.784;2023-07-13T15:38:16;5.93;;;2.05;;
59300;SDS011;45073;52.740;6.784;2023-07-13T15:40:44;6.32;;;1.70;;
59300;SDS011;45073;52.740;6.784;2023-07-13T15:43:14;7.05;;;1.70;;
59300;SDS011;45073;52.740;6.784;2023-07-13T15:45:41;6.47;;;1.95;;
59300;SDS011;45073;52.740;6.784;2023-07-13T15:48:18;7.10;;;1.92;;